sensor_id;sensor_type;location;lat;lon;timestamp;pressure;altitude;pressure_sealevel;temperature;humidity
50592;BME280;36548;50.506;30.834;2023-03-19T00:01:05;100958.73;;;5.33;63.98
50592;BME280;36548;50.506;30.834;2023-03-19T00:02:15;100958.98;;;5.25;64.78
50592;BME280;36548;50.506;30.834;2023-03-19T00:03:27;100954.04;;;5.12;65.77
50592;BME280;36548;50.506;30.834;2023-03-19T00:04:42;100949.20;;;5.25;66.47
50592;BME280;36548;50.506;30.834;2023-03-19T00:05:51;100962.02;;;5.12;66.50
50592;BME280;36548;50.506;30.834;2023-03-19T00:07:01;100958.52;;;5.10;66.62
50592;BME280;36548;50.506;30.834;2023-03-19T00:08:11;100961.08;;;5.13;67.11
50592;BME280;36548;50.506;30.834;2023-03-19T00:09:28;100957.97;;;5.29;66.95
50592;BME280;36548;50.506;30.834;2023-03-19T00:10:37;100951.96;;;5.22;66.58
50592;BME280;36548;50.506;30.834;2023-03-19T00:11:49;100953.66;;;5.25;66.05
50592;BME280;36548;50.506;30.834;2023-03-19T00:13:00;100954.52;;;5.25;65.84
50592;BME280;36548;50.506;30.834;2023-03-19T00:14:09;100952.72;;;5.26;65.84
50592;BME280;36548;50.506;30.834;2023-03-19T00:15:20;100950.05;;;5.26;65.57
50592;BME280;36548;50.506;30.834;2023-03-19T00:16:29;100958.05;;;5.26;65.56
50592;BME280;36548;50.506;30.834;2023-03-19T00:17:39;100956.33;;;5.25;65.40
50592;BME280;36548;50.506;30.834;2023-03-19T00:18:49;100949.14;;;5.27;65.60
50592;BME280;36548;50.506;30.834;2023-03-19T00:20:05;100947.02;;;5.38;65.49
50592;BME280;36548;50.506;30.834;2023-03-19T00:21:14;100949.05;;;5.30;65.53
50592;BME280;36548;50.506;30.834;2023-03-19T00:22:24;100946.33;;;5.32;65.40
50592;BME280;36548;50.506;30.834;2023-03-19T00:23:33;100942.70;;;5.34;65.27
50592;BME280;36548;50.506;30.834;2023-03-19T00:24:42;100936.47;;;5.35;65.18
50592;BME280;36548;50.506;30.834;2023-03-19T00:25:53;100932.00;;;5.36;65.08
50592;BME280;36548;50.506;30.834;2023-03-19T00:27:03;100936.47;;;5.35;64.67
50592;BME280;36548;50.506;30.834;2023-03-19T00:28:13;100932.95;;;5.35;64.92
50592;BME280;36548;50.506;30.834;2023-03-19T00:29:22;100934.66;;;5.36;64.79
50592;BME280;36548;50.506;30.834;2023-03-19T00:30:31;100933.00;;;5.33;64.64
50592;BME280;36548;50.506;30.834;2023-03-19T00:31:40;100928.64;;;5.31;64.31
50592;BME280;36548;50.506;30.834;2023-03-19T00:32:49;100926.16;;;5.24;64.20
50592;BME280;36548;50.506;30.834;2023-03-19T00:34:00;100929.78;;;5.22;64.61
50592;BME280;36548;50.506;30.834;2023-03-19T00:35:09;100925.45;;;5.19;64.80
50592;BME280;36548;50.506;30.834;2023-03-19T00:36:20;100929.88;;;5.19;65.10
50592;BME280;36548;50.506;30.834;2023-03-19T00:37:33;100929.13;;;5.15;65.05
50592;BME280;36548;50.506;30.834;2023-03-19T00:38:45;100938.77;;;5.18;65.60
50592;BME280;36548;50.506;30.834;2023-03-19T00:39:54;100932.44;;;5.22;65.88
50592;BME280;36548;50.506;30.834;2023-03-19T00:41:05;100942.13;;;5.24;65.35
50592;BME280;36548;50.506;30.834;2023-03-19T00:42:15;100939.66;;;5.18;64.52
50592;BME280;36548;50.506;30.834;2023-03-19T00:43:25;100936.16;;;5.16;65.02
50592;BME280;36548;50.506;30.834;2023-03-19T00:44:35;100937.06;;;5.17;65.46
50592;BME280;36548;50.506;30.834;2023-03-19T00:45:50;100924.23;;;5.29;65.46
50592;BME280;36548;50.506;30.834;2023-03-19T00:47:00;100929.83;;;5.20;65.36
50592;BME280;36548;50.506;30.834;2023-03-19T00:48:09;100925.39;;;5.21;64.95
50592;BME280;36548;50.506;30.834;2023-03-19T00:49:19;100927.16;;;5.20;64.77
50592;BME280;36548;50.506;30.834;2023-03-19T00:50:29;100925.47;;;5.18;64.49
50592;BME280;36548;50.506;30.834;2023-03-19T00:51:38;100932.59;;;5.17;65.13
50592;BME280;36548;50.506;30.834;2023-03-19T00:52:50;100933.50;;;5.16;64.87
50592;BME280;36548;50.506;30.834;2023-03-19T00:54:04;100931.78;;;5.15;65.11
50592;BME280;36548;50.506;30.834;2023-03-19T00:55:15;100931.57;;;4.93;63.92
50592;BME280;36548;50.506;30.834;2023-03-19T00:56:30;100921.14;;;4.85;64.85
50592;BME280;36548;50.506;30.834;2023-03-19T00:57:40;100924.57;;;4.59;65.80
50592;BME280;36548;50.506;30.834;2023-03-19T00:58:49;100921.16;;;4.54;66.55
50592;BME280;36548;50.506;30.834;2023-03-19T00:59:58;100931.03;;;4.50;66.90
50592;BME280;36548;50.506;30.834;2023-03-19T01:01:08;100921.36;;;4.48;67.07
50592;BME280;36548;50.506;30.834;2023-03-19T01:02:25;100919.20;;;4.60;67.80
50592;BME280;36548;50.506;30.834;2023-03-19T01:03:35;100923.88;;;4.52;67.86
50592;BME280;36548;50.506;30.834;2023-03-19T01:04:49;100922.87;;;4.56;67.89
50592;BME280;36548;50.506;30.834;2023-03-19T01:05:58;100919.16;;;4.62;67.98
50592;BME280;36548;50.506;30.834;2023-03-19T01:07:07;100921.70;;;4.67;67.72
50592;BME280;36548;50.506;30.834;2023-03-19T01:08:17;100911.11;;;4.65;66.68
50592;BME280;36548;50.506;30.834;2023-03-19T01:09:27;100914.78;;;4.61;66.67
50592;BME280;36548;50.506;30.834;2023-03-19T01:10:38;100910.37;;;4.60;67.09
50592;BME280;36548;50.506;30.834;2023-03-19T01:11:47;100913.89;;;4.60;67.41
50592;BME280;36548;50.506;30.834;2023-03-19T01:12:56;100912.17;;;4.59;67.19
50592;BME280;36548;50.506;30.834;2023-03-19T01:14:06;100912.94;;;4.63;67.89
50592;BME280;36548;50.506;30.834;2023-03-19T01:15:16;100909.31;;;4.66;67.52
50592;BME280;36548;50.506;30.834;2023-03-19T01:16:31;100903.63;;;4.78;67.42
50592;BME280;36548;50.506;30.834;2023-03-19T01:17:43;100915.45;;;4.68;67.09
50592;BME280;36548;50.506;30.834;2023-03-19T01:18:53;100911.97;;;4.66;66.75
50592;BME280;36548;50.506;30.834;2023-03-19T01:20:03;100913.73;;;4.67;66.84
50592;BME280;36548;50.506;30.834;2023-03-19T01:21:15;100908.41;;;4.67;66.98
50592;BME280;36548;50.506;30.834;2023-03-19T01:22:27;100917.24;;;4.67;66.99
50592;BME280;36548;50.506;30.834;2023-03-19T01:23:38;100904.86;;;4.66;67.14
50592;BME280;36548;50.506;30.834;2023-03-19T01:24:49;100906.66;;;4.66;66.98
50592;BME280;36548;50.506;30.834;2023-03-19T01:25:58;100908.47;;;4.64;67.04
50592;BME280;36548;50.506;30.834;2023-03-19T01:27:11;100905.91;;;4.60;67.06
50592;BME280;36548;50.506;30.834;2023-03-19T01:28:21;100905.95;;;4.59;67.01
50592;BME280;36548;50.506;30.834;2023-03-19T01:29:33;100907.86;;;4.55;66.98
50592;BME280;36548;50.506;30.834;2023-03-19T01:30:46;100910.53;;;4.54;67.23
50592;BME280;36548;50.506;30.834;2023-03-19T01:32:12;100910.53;;;4.54;67.43
50592;BME280;36548;50.506;30.834;2023-03-19T01:33:41;100909.62;;;4.55;67.81
50592;BME280;36548;50.506;30.834;2023-03-19T01:34:52;100904.26;;;4.56;67.65
50592;BME280;36548;50.506;30.834;2023-03-19T01:36:02;100905.21;;;4.54;67.29
50592;BME280;36548;50.506;30.834;2023-03-19T01:37:19;100907.11;;;4.50;67.37
50592;BME280;36548;50.506;30.834;2023-03-19T01:38:34;100908.77;;;4.54;67.41
50592;BME280;36548;50.506;30.834;2023-03-19T01:39:45;100910.92;;;4.40;67.59
50592;BME280;36548;50.506;30.834;2023-03-19T01:40:56;100910.06;;;4.39;68.06
50592;BME280;36548;50.506;30.834;2023-03-19T01:42:07;100913.62;;;4.38;67.50
50592;BME280;36548;50.506;30.834;2023-03-19T01:43:35;100911.97;;;4.34;67.48
50592;BME280;36548;50.506;30.834;2023-03-19T01:44:48;100917.38;;;4.31;67.55
50592;BME280;36548;50.506;30.834;2023-03-19T01:46:26;100908.59;;;4.29;67.63
50592;BME280;36548;50.506;30.834;2023-03-19T01:47:53;100909.59;;;4.25;67.39
50592;BME280;36548;50.506;30.834;2023-03-19T01:49:12;100904.09;;;4.31;67.85
50592;BME280;36548;50.506;30.834;2023-03-19T01:51:56;100920.75;;;4.38;68.37
50592;BME280;36548;50.506;30.834;2023-03-19T01:53:13;100912.97;;;4.30;68.27
50592;BME280;36548;50.506;30.834;2023-03-19T01:54:27;100912.91;;;4.33;68.22
50592;BME280;36548;50.506;30.834;2023-03-19T01:55:46;100917.19;;;4.39;68.23
50592;BME280;36548;50.506;30.834;2023-03-19T01:57:12;100916.23;;;4.41;67.59
50592;BME280;36548;50.506;30.834;2023-03-19T01:58:28;100914.13;;;4.53;67.17
50592;BME280;36548;50.506;30.834;2023-03-19T02:01:01;100911.37;;;4.56;67.09
50592;BME280;36548;50.506;30.834;2023-03-19T02:03:25;100921.36;;;4.48;67.00
50592;BME280;36548;50.506;30.834;2023-03-19T02:04:38;100916.85;;;4.50;66.30
50592;BME280;36548;50.506;30.834;2023-03-19T02:05:49;100924.06;;;4.46;66.51
50592;BME280;36548;50.506;30.834;2023-03-19T02:07:02;100923.22;;;4.44;66.58
50592;BME280;36548;50.506;30.834;2023-03-19T02:08:14;100923.36;;;4.39;66.43
50592;BME280;36548;50.506;30.834;2023-03-19T02:09:25;100922.66;;;4.33;66.66
50592;BME280;36548;50.506;30.834;2023-03-19T02:10:47;100921.75;;;4.34;67.81
50592;BME280;36548;50.506;30.834;2023-03-19T02:11:58;100917.34;;;4.33;67.21
50592;BME280;36548;50.506;30.834;2023-03-19T02:13:11;100923.70;;;4.27;66.92
50592;BME280;36548;50.506;30.834;2023-03-19T02:14:22;100919.33;;;4.24;67.22
50592;BME280;36548;50.506;30.834;2023-03-19T02:15:31;100917.63;;;4.22;67.38
50592;BME280;36548;50.506;30.834;2023-03-19T02:16:41;100916.91;;;4.17;66.50
50592;BME280;36548;50.506;30.834;2023-03-19T02:17:50;100922.37;;;4.10;66.58
50592;BME280;36548;50.506;30.834;2023-03-19T02:18:59;100926.78;;;4.12;67.74
50592;BME280;36548;50.506;30.834;2023-03-19T02:20:33;100920.47;;;4.16;68.07
50592;BME280;36548;50.506;30.834;2023-03-19T02:21:43;100922.13;;;4.20;67.85
50592;BME280;36548;50.506;30.834;2023-03-19T02:23:17;100924.83;;;4.18;67.02
50592;BME280;36548;50.506;30.834;2023-03-19T02:24:31;100926.59;;;4.18;67.22
50592;BME280;36548;50.506;30.834;2023-03-19T02:25:59;100926.40;;;4.25;66.14
50592;BME280;36548;50.506;30.834;2023-03-19T02:27:13;100927.64;;;4.12;66.47
50592;BME280;36548;50.506;30.834;2023-03-19T02:28:25;100923.22;;;4.13;66.39
50592;BME280;36548;50.506;30.834;2023-03-19T02:29:34;100925.88;;;4.13;66.32
50592;BME280;36548;50.506;30.834;2023-03-19T02:30:44;100932.05;;;4.13;66.72
50592;BME280;36548;50.506;30.834;2023-03-19T02:31:53;100927.59;;;4.14;66.35
50592;BME280;36548;50.506;30.834;2023-03-19T02:33:03;100932.89;;;4.15;66.24
50592;BME280;36548;50.506;30.834;2023-03-19T02:35:34;100930.72;;;4.30;66.24
50592;BME280;36548;50.506;30.834;2023-03-19T02:38:04;100930.91;;;4.23;65.56
50592;BME280;36548;50.506;30.834;2023-03-19T02:39:33;100930.34;;;4.10;65.85
50592;BME280;36548;50.506;30.834;2023-03-19T02:40:59;100928.26;;;4.22;66.52
50592;BME280;36548;50.506;30.834;2023-03-19T02:42:10;100925.83;;;4.14;66.59
50592;BME280;36548;50.506;30.834;2023-03-19T02:43:20;100939.06;;;4.16;66.47
50592;BME280;36548;50.506;30.834;2023-03-19T02:44:32;100928.39;;;4.17;65.98
50592;BME280;36548;50.506;30.834;2023-03-19T02:45:41;100931.91;;;4.18;65.70
50592;BME280;36548;50.506;30.834;2023-03-19T02:46:51;100925.64;;;4.20;65.95
50592;BME280;36548;50.506;30.834;2023-03-19T02:48:01;100935.33;;;4.23;65.63
50592;BME280;36548;50.506;30.834;2023-03-19T02:49:11;100930.86;;;4.25;65.54
50592;BME280;36548;50.506;30.834;2023-03-19T02:50:20;100937.03;;;4.25;64.96
50592;BME280;36548;50.506;30.834;2023-03-19T02:51:30;100927.35;;;4.23;64.80
50592;BME280;36548;50.506;30.834;2023-03-19T02:52:39;100930.91;;;4.22;64.64
50592;BME280;36548;50.506;30.834;2023-03-19T02:53:48;100931.85;;;4.21;64.65
50592;BME280;36548;50.506;30.834;2023-03-19T02:54:56;100930.95;;;4.20;65.00
50592;BME280;36548;50.506;30.834;2023-03-19T02:56:07;100937.12;;;4.22;65.17
50592;BME280;36548;50.506;30.834;2023-03-19T02:57:16;100924.69;;;4.23;64.96
50592;BME280;36548;50.506;30.834;2023-03-19T02:58:32;100927.11;;;4.32;64.64
50592;BME280;36548;50.506;30.834;2023-03-19T02:59:41;100932.67;;;4.23;64.67
50592;BME280;36548;50.506;30.834;2023-03-19T03:00:51;100938.87;;;4.23;64.82
50592;BME280;36548;50.506;30.834;2023-03-19T03:02:02;100934.38;;;4.25;64.74
50592;BME280;36548;50.506;30.834;2023-03-19T03:03:11;100936.22;;;4.23;64.19
50592;BME280;36548;50.506;30.834;2023-03-19T03:04:22;100940.64;;;4.23;64.55
50592;BME280;36548;50.506;30.834;2023-03-19T03:05:32;100942.34;;;4.25;64.70
50592;BME280;36548;50.506;30.834;2023-03-19T03:06:42;100945.05;;;4.24;64.17
50592;BME280;36548;50.506;30.834;2023-03-19T03:07:52;100939.83;;;4.21;64.14
50592;BME280;36548;50.506;30.834;2023-03-19T03:09:01;100942.48;;;4.21;64.59
50592;BME280;36548;50.506;30.834;2023-03-19T03:10:12;100945.14;;;4.21;64.35
50592;BME280;36548;50.506;30.834;2023-03-19T03:11:22;100946.91;;;4.20;64.21
50592;BME280;36548;50.506;30.834;2023-03-19T03:12:31;100945.20;;;4.18;64.18
50592;BME280;36548;50.506;30.834;2023-03-19T03:13:41;100951.50;;;4.15;64.24
50592;BME280;36548;50.506;30.834;2023-03-19T03:14:50;100942.67;;;4.13;64.57
50592;BME280;36548;50.506;30.834;2023-03-19T03:16:00;100944.47;;;4.13;64.41
50592;BME280;36548;50.506;30.834;2023-03-19T03:17:10;100946.19;;;4.14;64.66
50592;BME280;36548;50.506;30.834;2023-03-19T03:18:19;100943.48;;;4.17;64.68
50592;BME280;36548;50.506;30.834;2023-03-19T03:19:28;100941.19;;;4.03;62.02
50592;BME280;36548;50.506;30.834;2023-03-19T03:20:38;100939.88;;;3.85;62.24
50592;BME280;36548;50.506;30.834;2023-03-19T03:21:48;100943.48;;;3.82;63.63
50592;BME280;36548;50.506;30.834;2023-03-19T03:22:58;100942.53;;;3.85;64.30
50592;BME280;36548;50.506;30.834;2023-03-19T03:24:09;100935.66;;;3.76;62.73
50592;BME280;36548;50.506;30.834;2023-03-19T03:25:18;100935.09;;;3.63;62.81
50592;BME280;36548;50.506;30.834;2023-03-19T03:26:28;100945.72;;;3.63;63.84
50592;BME280;36548;50.506;30.834;2023-03-19T03:27:38;100943.02;;;3.65;64.05
50592;BME280;36548;50.506;30.834;2023-03-19T03:28:54;100934.80;;;3.75;63.61
50592;BME280;36548;50.506;30.834;2023-03-19T03:30:06;100942.25;;;3.61;62.88
50592;BME280;36548;50.506;30.834;2023-03-19T03:31:18;100942.30;;;3.58;62.71
50592;BME280;36548;50.506;30.834;2023-03-19T03:32:28;100939.64;;;3.58;62.76
50592;BME280;36548;50.506;30.834;2023-03-19T03:33:37;100944.01;;;3.61;63.32
50592;BME280;36548;50.506;30.834;2023-03-19T03:34:47;100936.89;;;3.63;63.29
50592;BME280;36548;50.506;30.834;2023-03-19T03:35:56;100935.91;;;3.67;63.18
50592;BME280;36548;50.506;30.834;2023-03-19T03:37:05;100942.89;;;3.71;63.02
50592;BME280;36548;50.506;30.834;2023-03-19T03:38:14;100940.14;;;3.74;62.87
50592;BME280;36548;50.506;30.834;2023-03-19T03:39:24;100941.99;;;3.70;61.70
50592;BME280;36548;50.506;30.834;2023-03-19T03:40:35;100938.52;;;3.68;61.94
50592;BME280;36548;50.506;30.834;2023-03-19T03:41:45;100939.42;;;3.67;61.87
50592;BME280;36548;50.506;30.834;2023-03-19T03:42:55;100950.25;;;3.60;60.60
50592;BME280;36548;50.506;30.834;2023-03-19T03:44:05;100944.12;;;3.56;61.50
50592;BME280;36548;50.506;30.834;2023-03-19T03:45:16;100942.79;;;3.38;60.91
50592;BME280;36548;50.506;30.834;2023-03-19T03:46:25;100940.14;;;3.38;61.74
50592;BME280;36548;50.506;30.834;2023-03-19T03:47:36;100949.89;;;3.37;62.42
50592;BME280;36548;50.506;30.834;2023-03-19T03:48:45;100950.75;;;3.38;62.39
50592;BME280;36548;50.506;30.834;2023-03-19T03:50:03;100942.91;;;3.33;61.25
50592;BME280;36548;50.506;30.834;2023-03-19T03:51:14;100948.63;;;3.15;61.22
50592;BME280;36548;50.506;30.834;2023-03-19T03:52:23;100942.53;;;3.11;61.83
50592;BME280;36548;50.506;30.834;2023-03-19T03:53:32;100947.95;;;3.05;61.86
50592;BME280;36548;50.506;30.834;2023-03-19T03:54:41;100948.03;;;3.02;62.10
50592;BME280;36548;50.506;30.834;2023-03-19T03:55:51;100944.56;;;2.98;61.92
50592;BME280;36548;50.506;30.834;2023-03-19T03:57:03;100948.18;;;2.96;62.16
50592;BME280;36548;50.506;30.834;2023-03-19T03:58:13;100952.55;;;2.97;62.36
50592;BME280;36548;50.506;30.834;2023-03-19T03:59:23;100951.73;;;2.95;61.89
50592;BME280;36548;50.506;30.834;2023-03-19T04:00:34;100957.19;;;2.87;61.81
50592;BME280;36548;50.506;30.834;2023-03-19T04:01:43;100950.23;;;2.81;62.20
50592;BME280;36548;50.506;30.834;2023-03-19T04:02:53;100949.30;;;2.84;62.58
50592;BME280;36548;50.506;30.834;2023-03-19T04:04:03;100950.13;;;2.87;62.87
50592;BME280;36548;50.506;30.834;2023-03-19T04:05:18;100942.91;;;2.93;62.18
50592;BME280;36548;50.506;30.834;2023-03-19T04:06:29;100949.41;;;2.79;62.32
50592;BME280;36548;50.506;30.834;2023-03-19T04:07:41;100945.80;;;2.82;62.99
50592;BME280;36548;50.506;30.834;2023-03-19T04:08:51;100946.58;;;2.87;63.18
50592;BME280;36548;50.506;30.834;2023-03-19T04:10:01;100947.39;;;2.90;62.95
50592;BME280;36548;50.506;30.834;2023-03-19T04:11:11;100942.84;;;2.97;63.29
50592;BME280;36548;50.506;30.834;2023-03-19T04:12:21;100947.02;;;3.07;63.47
50592;BME280;36548;50.506;30.834;2023-03-19T04:13:30;100940.62;;;3.16;63.16
50592;BME280;36548;50.506;30.834;2023-03-19T04:14:42;100943.11;;;3.24;62.74
50592;BME280;36548;50.506;30.834;2023-03-19T04:15:51;100949.12;;;3.32;62.56
50592;BME280;36548;50.506;30.834;2023-03-19T04:17:04;100941.93;;;3.37;62.03
50592;BME280;36548;50.506;30.834;2023-03-19T04:18:14;100939.20;;;3.40;61.69
50592;BME280;36548;50.506;30.834;2023-03-19T04:19:23;100943.48;;;3.46;61.89
50592;BME280;36548;50.506;30.834;2023-03-19T04:20:33;100938.91;;;3.53;62.10
50592;BME280;36548;50.506;30.834;2023-03-19T04:21:43;100939.69;;;3.56;61.61
50592;BME280;36548;50.506;30.834;2023-03-19T04:22:53;100937.92;;;3.57;61.03
50592;BME280;36548;50.506;30.834;2023-03-19T04:24:02;100931.67;;;3.58;61.02
50592;BME280;36548;50.506;30.834;2023-03-19T04:25:40;100933.08;;;3.73;61.33
50592;BME280;36548;50.506;30.834;2023-03-19T04:26:50;100938.61;;;3.64;60.86
50592;BME280;36548;50.506;30.834;2023-03-19T04:28:00;100928.89;;;3.64;61.04
50592;BME280;36548;50.506;30.834;2023-03-19T04:29:10;100932.41;;;3.65;60.89
50592;BME280;36548;50.506;30.834;2023-03-19T04:30:20;100931.55;;;3.64;60.83
50592;BME280;36548;50.506;30.834;2023-03-19T04:31:29;100942.98;;;3.66;61.15
50592;BME280;36548;50.506;30.834;2023-03-19T04:32:38;100935.83;;;3.70;61.11
50592;BME280;36548;50.506;30.834;2023-03-19T04:33:49;100931.33;;;3.72;61.15
50592;BME280;36548;50.506;30.834;2023-03-19T04:34:58;100936.59;;;3.75;60.98
50592;BME280;36548;50.506;30.834;2023-03-19T04:36:07;100934.84;;;3.74;60.51
50592;BME280;36548;50.506;30.834;2023-03-19T04:37:16;100930.47;;;3.71;60.21
50592;BME280;36548;50.506;30.834;2023-03-19T04:38:27;100930.65;;;3.64;59.69
50592;BME280;36548;50.506;30.834;2023-03-19T04:39:38;100938.78;;;3.57;60.18
50592;BME280;36548;50.506;30.834;2023-03-19T04:40:54;100935.06;;;3.65;60.91
50592;BME280;36548;50.506;30.834;2023-03-19T04:42:04;100931.80;;;3.53;60.66
50592;BME280;36548;50.506;30.834;2023-03-19T04:43:21;100928.97;;;3.61;61.14
50592;BME280;36548;50.506;30.834;2023-03-19T04:44:31;100938.95;;;3.51;61.23
50592;BME280;36548;50.506;30.834;2023-03-19T04:45:42;100932.78;;;3.49;60.79
50592;BME280;36548;50.506;30.834;2023-03-19T04:46:51;100939.93;;;3.47;60.92
50592;BME280;36548;50.506;30.834;2023-03-19T04:48:01;100933.80;;;3.44;60.59
50592;BME280;36548;50.506;30.834;2023-03-19T04:49:13;100936.50;;;3.42;61.33
50592;BME280;36548;50.506;30.834;2023-03-19T04:50:22;100934.70;;;3.43;61.35
50592;BME280;36548;50.506;30.834;2023-03-19T04:51:37;100937.02;;;3.56;61.82
50592;BME280;36548;50.506;30.834;2023-03-19T04:52:48;100932.74;;;3.51;61.70
50592;BME280;36548;50.506;30.834;2023-03-19T04:53:57;100933.52;;;3.56;61.92
50592;BME280;36548;50.506;30.834;2023-03-19T04:55:09;100933.30;;;3.64;62.36
50592;BME280;36548;50.506;30.834;2023-03-19T04:56:37;100933.08;;;3.73;62.67
50592;BME280;36548;50.506;30.834;2023-03-19T04:57:47;100931.16;;;3.80;62.83
50592;BME280;36548;50.506;30.834;2023-03-19T04:58:58;100939.92;;;3.83;63.28
50592;BME280;36548;50.506;30.834;2023-03-19T05:00:08;100931.83;;;3.88;63.75
50592;BME280;36548;50.506;30.834;2023-03-19T05:01:20;100937.95;;;3.91;63.14
50592;BME280;36548;50.506;30.834;2023-03-19T05:02:31;100933.53;;;3.90;61.74
50592;BME280;36548;50.506;30.834;2023-03-19T05:03:41;100933.63;;;3.86;61.48
50592;BME280;36548;50.506;30.834;2023-03-19T05:04:50;100945.15;;;3.86;62.41
50592;BME280;36548;50.506;30.834;2023-03-19T05:05:59;100935.30;;;3.90;63.49
50592;BME280;36548;50.506;30.834;2023-03-19T05:07:10;100936.83;;;4.00;64.31
50592;BME280;36548;50.506;30.834;2023-03-19T05:08:20;100937.49;;;4.08;64.57
50592;BME280;36548;50.506;30.834;2023-03-19T05:09:35;100931.67;;;4.27;64.11
50592;BME280;36548;50.506;30.834;2023-03-19T05:10:45;100937.22;;;4.18;63.01
50592;BME280;36548;50.506;30.834;2023-03-19T05:11:55;100941.63;;;4.19;62.81
50592;BME280;36548;50.506;30.834;2023-03-19T05:13:05;100936.22;;;4.23;62.91
50592;BME280;36548;50.506;30.834;2023-03-19T05:14:17;100929.92;;;4.26;62.37
50592;BME280;36548;50.506;30.834;2023-03-19T05:15:28;100930.86;;;4.25;61.46
50592;BME280;36548;50.506;30.834;2023-03-19T05:16:40;100935.23;;;4.26;61.46
50592;BME280;36548;50.506;30.834;2023-03-19T05:17:49;100933.42;;;4.28;61.71
50592;BME280;36548;50.506;30.834;2023-03-19T05:19:00;100935.17;;;4.29;61.35
50592;BME280;36548;50.506;30.834;2023-03-19T05:20:11;100933.33;;;4.31;61.40
50592;BME280;36548;50.506;30.834;2023-03-19T05:21:23;100930.62;;;4.33;60.97
50592;BME280;36548;50.506;30.834;2023-03-19T05:22:38;100928.72;;;4.38;60.63
50592;BME280;36548;50.506;30.834;2023-03-19T05:23:48;100936.17;;;4.25;61.00
50592;BME280;36548;50.506;30.834;2023-03-19T05:25:05;100927.81;;;4.39;61.81
50592;BME280;36548;50.506;30.834;2023-03-19T05:26:16;100930.62;;;4.33;61.90
50592;BME280;36548;50.506;30.834;2023-03-19T05:27:27;100923.50;;;4.35;61.71
50592;BME280;36548;50.506;30.834;2023-03-19T05:28:47;100930.42;;;4.40;61.90
50592;BME280;36548;50.506;30.834;2023-03-19T05:29:58;100932.04;;;4.46;61.61
50592;BME280;36548;50.506;30.834;2023-03-19T05:31:13;100933.70;;;4.50;61.81
50592;BME280;36548;50.506;30.834;2023-03-19T05:32:24;100936.26;;;4.53;61.51
50592;BME280;36548;50.506;30.834;2023-03-19T05:33:34;100937.97;;;4.56;61.67
50592;BME280;36548;50.506;30.834;2023-03-19T05:34:43;100931.64;;;4.60;62.12
50592;BME280;36548;50.506;30.834;2023-03-19T05:35:58;100929.39;;;4.76;62.04
50592;BME280;36548;50.506;30.834;2023-03-19T05:37:10;100930.50;;;4.69;62.14
50592;BME280;36548;50.506;30.834;2023-03-19T05:38:19;100924.17;;;4.73;62.04
50592;BME280;36548;50.506;30.834;2023-03-19T05:39:31;100924.05;;;4.77;61.75
50592;BME280;36548;50.506;30.834;2023-03-19T05:40:42;100924.86;;;4.80;61.98
50592;BME280;36548;50.506;30.834;2023-03-19T05:41:54;100920.34;;;4.83;61.80
50592;BME280;36548;50.506;30.834;2023-03-19T05:43:05;100916.69;;;4.86;61.76
50592;BME280;36548;50.506;30.834;2023-03-19T05:44:15;100920.98;;;4.91;61.71
50592;BME280;36548;50.506;30.834;2023-03-19T05:45:49;100921.84;;;4.92;61.45
50592;BME280;36548;50.506;30.834;2023-03-19T05:46:59;100924.34;;;4.97;61.77
50592;BME280;36548;50.506;30.834;2023-03-19T05:48:10;100922.48;;;5.00;61.68
50592;BME280;36548;50.506;30.834;2023-03-19T05:49:21;100915.30;;;5.02;61.71
50592;BME280;36548;50.506;30.834;2023-03-19T05:50:30;100916.95;;;5.06;61.77
50592;BME280;36548;50.506;30.834;2023-03-19T05:51:46;100924.44;;;5.23;62.00
50592;BME280;36548;50.506;30.834;2023-03-19T05:52:56;100918.48;;;5.15;61.68
50592;BME280;36548;50.506;30.834;2023-03-19T05:54:06;100918.33;;;5.20;61.57
50592;BME280;36548;50.506;30.834;2023-03-19T05:55:17;100928.11;;;5.19;61.26
50592;BME280;36548;50.506;30.834;2023-03-19T05:56:28;100923.64;;;5.20;61.29
50592;BME280;36548;50.506;30.834;2023-03-19T05:57:45;100920.12;;;5.19;61.27
50592;BME280;36548;50.506;30.834;2023-03-19T05:58:59;100927.22;;;5.19;61.62
50592;BME280;36548;50.506;30.834;2023-03-19T06:00:12;100932.48;;;5.20;61.81
50592;BME280;36548;50.506;30.834;2023-03-19T06:01:22;100927.11;;;5.22;61.98
50592;BME280;36548;50.506;30.834;2023-03-19T06:02:38;100924.91;;;5.36;62.03
50592;BME280;36548;50.506;30.834;2023-03-19T06:03:57;100925.19;;;5.27;62.01
50592;BME280;36548;50.506;30.834;2023-03-19T06:05:07;100933.91;;;5.32;62.44
50592;BME280;36548;50.506;30.834;2023-03-19T06:06:17;100931.03;;;5.38;62.38
50592;BME280;36548;50.506;30.834;2023-03-19T06:07:27;100940.61;;;5.44;62.19
50592;BME280;36548;50.506;30.834;2023-03-19T06:08:37;100939.65;;;5.46;62.07
50592;BME280;36548;50.506;30.834;2023-03-19T06:09:49;100935.22;;;5.47;62.04
50592;BME280;36548;50.506;30.834;2023-03-19T06:10:59;100927.92;;;5.52;62.23
50592;BME280;36548;50.506;30.834;2023-03-19T06:12:09;100941.97;;;5.57;62.43
50592;BME280;36548;50.506;30.834;2023-03-19T06:13:37;100939.20;;;5.60;62.30
50592;BME280;36548;50.506;30.834;2023-03-19T06:14:54;100934.20;;;5.78;62.56
50592;BME280;36548;50.506;30.834;2023-03-19T06:16:06;100932.61;;;5.72;62.42
50592;BME280;36548;50.506;30.834;2023-03-19T06:17:17;100933.41;;;5.74;62.23
50592;BME280;36548;50.506;30.834;2023-03-19T06:18:27;100928.92;;;5.76;62.02
50592;BME280;36548;50.506;30.834;2023-03-19T06:19:36;100937.72;;;5.78;62.01
50592;BME280;36548;50.506;30.834;2023-03-19T06:20:46;100936.75;;;5.81;62.08
50592;BME280;36548;50.506;30.834;2023-03-19T06:21:58;100941.97;;;5.84;62.09
50592;BME280;36548;50.506;30.834;2023-03-19T06:23:07;100933.92;;;5.86;62.04